• Join FlightAware (Why Join?)
  • Login
  • US Flag 
Gobble Gobble! 
01:52PM EST


 

Airport Tracker/Info


-or-


 

Live Flight TrackerFlight Track Log ✈ BOE5 ✈ 11-Jul-2013 ✈ KBFI - KBFI

Flight Track Log - Related Links

Times and Time Zones

All times are in EDT time to prevent confusion due to time zone crossing. See the BOE5 flight status page for this flight to view local times or setup timezone preferences in your user account.

Time Position Orientation Groundspeed Altitude Reporting Facility
EDT Latitude Longitude Course Direction KTS MPH feet Rate Location/Type
11:32AM 47.3780 -122.2850 265° West 243 280 9,800  Level FlightAware
11:33AM 47.3740 -122.3490 265° West 250 288 11,000 1,560 Climbing FlightAware
11:34AM 47.3680 -122.4690 266° West 258 297 12,700 1,560 Climbing FlightAware
11:35AM 47.3650 -122.5470 267° West 262 302 13,900 1,500 Climbing FlightAware
11:36AM 47.3560 -122.6210 260° West 270 311 14,800 720 Climbing FlightAware
11:36AM 47.3400 -122.6810 249° West 269 310 14,900 60 Climbing FlightAware
11:37AM 47.3140 -122.7810 249° West 268 308 14,900  Level FlightAware
11:38AM 47.2980 -122.8430 249° West 269 310 14,900  Level FlightAware
11:39AM 47.2800 -122.9100 248° West 271 312 14,900  Level FlightAware
11:39AM 47.2620 -122.9800 249° West 270 311 14,900 600 Level FlightAware
11:40AM 47.2350 -123.0830 249° West 330 380 15,900 1,800 Climbing FlightAware
11:41AM 47.2120 -123.1710 249° West 355 409 17,800 3,120 Climbing FlightAware
11:42AM 47.1850 -123.2720 249° West 365 420 20,400 3,240 Climbing FlightAware
11:42AM 47.1550 -123.3720 246° West 374 430 22,700 3,060 Climbing FlightAware
11:43AM 47.1340 -123.4010 223° Southwest 386 444 23,500 2,700 Climbing FlightAware
11:43AM 47.0830 -123.4270 199° South 409 471 24,700 2,340 Climbing FlightAware
11:44AM 47.0150 -123.4450 190° South 419 482 26,100 2,160 Climbing FlightAware
11:45AM 46.8920 -123.4770 190° South 437 503 28,300 2,100 Climbing FlightAware
11:45AM 46.8170 -123.4970 190° South 446 513 29,600 1,920 Climbing FlightAware
11:46AM 46.7410 -123.5170 190° South 453 521 30,700 1,740 Climbing FlightAware
11:47AM 46.6110 -123.5510 190° South 465 535 32,500 1,620 Climbing FlightAware
11:48AM 46.5330 -123.5710 190° South 472 543 33,400 1,680 Climbing FlightAware
11:48AM 46.4370 -123.5960 190° South 472 543 34,800 1,980 Climbing FlightAware
11:49AM 46.3410 -123.6210 190° South 461 531 36,400 1,920 Climbing FlightAware
11:50AM 46.2600 -123.6410 190° South 459 528 37,500 1,680 Climbing FlightAware
11:50AM 46.1780 -123.6620 190° South 451 519 38,600 1,080 Climbing FlightAware
11:51AM 46.0950 -123.6840 190° South 460 529 39,000 300 Climbing FlightAware
11:52AM 46.0090 -123.7060 190° South 466 536 39,000  Level FlightAware
11:52AM 45.9260 -123.7270 190° South 465 535 39,000  Level FlightAware
11:53AM 45.8480 -123.7470 190° South 461 531 39,000  Level FlightAware
11:54AM 45.7580 -123.7690 190° South 462 532 39,000  Level FlightAware
11:54AM 45.6610 -123.7930 190° South 460 529 39,000  Level FlightAware
11:55AM 45.5770 -123.8140 190° South 459 528 39,000  Level FlightAware
11:56AM 45.5010 -123.8330 190° South 460 529 39,000  Level FlightAware
11:56AM 45.4080 -123.8570 190° South 457 526 39,000  Level FlightAware
11:57AM 45.3300 -123.8760 190° South 456 525 39,000  Level FlightAware
11:58AM 45.2470 -123.8960 190° South 458 527 39,000  Level FlightAware
11:58AM 45.1620 -123.9170 190° South 459 528 39,000  Level FlightAware
11:59AM 45.0660 -123.9410 190° South 457 526 39,000  Level FlightAware
12:00PM 44.9740 -123.9640 190° South 456 525 39,000  Level FlightAware
12:00PM 44.9040 -123.9810 190° South 457 526 39,000  Level FlightAware
12:01PM 44.8040 -124.0050 190° South 459 528 39,000  Level FlightAware
12:02PM 44.7210 -124.0260 190° South 461 531 39,000  Level FlightAware
12:03PM 44.6270 -124.0480 189° South 462 532 39,000  Level FlightAware
12:03PM 44.5510 -124.0620 187° South 468 539 39,000  Level FlightAware
12:04PM 44.4460 -124.0690 183° South 470 541 39,000  Level FlightAware
12:05PM 44.3560 -124.0750 183° South 467 537 39,000  Level FlightAware
12:05PM 44.2800 -124.0800 183° South 466 536 39,000  Level FlightAware
12:06PM 44.1920 -124.0860 183° South 468 539 39,000  Level FlightAware
12:07PM 44.0960 -124.0930 183° South 469 540 39,000  Level FlightAware
12:07PM 44.0130 -124.0980 182° South 469 540 39,000  Level FlightAware
12:08PM 43.9140 -124.1050 183° South 472 543 39,000  Level FlightAware
12:09PM 43.8250 -124.1110 183° South 474 545 39,000  Level FlightAware
12:10PM 43.7350 -124.1170 183° South 473 544 39,000  Level FlightAware
12:10PM 43.6280 -124.1230 182° South 473 544 39,000  Level FlightAware
12:11PM 43.5540 -124.1280 183° South 475 547 39,000  Level FlightAware
12:12PM 43.4430 -124.1360 183° South 478 550 39,000  Level FlightAware
12:12PM 43.3520 -124.1410 182° South 478 550 39,000  Level FlightAware
12:13PM 43.2450 -124.1480 183° South 479 551 39,000  Level FlightAware
12:14PM 43.1550 -124.1520 182° South 479 551 39,000  Level FlightAware
12:15PM 43.0850 -124.1550 182° South 479 551 39,000  Level FlightAware
12:16PM 42.9950 -124.1600 182° South 479 551 39,000  Level FlightAware
12:16PM 42.9230 -124.1630 182° South 479 551 39,000  Level FlightAware
12:17PM 42.8330 -124.1670 182° South 479 551 39,000  Level FlightAware
12:18PM 42.7630 -124.1710 182° South 479 551 39,000  Level FlightAware
12:18PM 42.6930 -124.1740 182° South 479 551 39,000  Level FlightAware
12:19PM 42.6010 -124.1780 182° South 479 551 39,000  Level FlightAware
12:20PM 42.5310 -124.1820 182° South 479 551 39,000  Level FlightAware
12:20PM 42.4640 -124.1850 182° South 479 551 39,000  Level FlightAware
12:21PM 42.3730 -124.1890 182° South 479 551 39,000  Level FlightAware
12:22PM 42.3060 -124.1920 182° South 479 551 39,000  Level FlightAware
12:23PM 42.1910 -124.1980 182° South 479 551 39,000  Level FlightAware
12:23PM 41.9258 -124.1919 182° South 474 545 39,000  Level Seattle Center
12:29PM 41.1450 -124.2190 182° South 467 537 39,000  Level FlightAware
12:30PM 41.0590 -124.2220 182° South 465 535 39,000  Level FlightAware
12:31PM 40.9440 -124.2350 185° South 451 519 39,000  Level FlightAware
12:32PM 40.8600 -124.2990 210° Southwest 457 526 39,000  Level FlightAware
12:32PM 40.8020 -124.3470 212° Southwest 457 526 39,000  Level FlightAware
12:33PM 40.7470 -124.3920 212° Southwest 457 526 39,000  Level FlightAware
12:34PM 40.6340 -124.4850 212° Southwest 457 526 39,000  Level FlightAware
12:35PM 40.5780 -124.5320 213° Southwest 457 526 39,000  Level FlightAware
12:36PM 40.4670 -124.6230 212° Southwest 457 526 39,000  Level FlightAware
12:37PM 40.3740 -124.7000 212° Southwest 457 526 39,000  Level FlightAware
12:38PM 40.3190 -124.7450 212° Southwest 457 526 39,000  Level FlightAware
12:39PM 41.6228 -124.4742 212° Southwest 511 588 39,000 -60 Level Seattle Center
12:40PM 41.7622 -124.4569 North 508 585 38,900  Descending Seattle Center
12:41PM 41.9011 -124.4414 North 504 580 39,000  Climbing Seattle Center
12:42PM 42.0425 -124.4197 North 507 583 39,000  Level Seattle Center
12:43PM 42.2108 -124.3969 North 507 583 39,000  Level Seattle Center
12:49PM 43.0470 -124.2830 North 513 590 39,000  Level FlightAware
12:49PM 43.1440 -124.2690 North 513 590 39,000  Level FlightAware
12:50PM 43.2350 -124.2560 North 514 592 39,000  Level FlightAware
12:51PM 43.3370 -124.2410 North 515 593 39,000  Level FlightAware
12:51PM 43.4330 -124.2280 North 516 594 39,000  Level FlightAware
12:52PM 43.5250 -124.2140 North 518 596 39,000  Level FlightAware
12:53PM 43.6200 -124.2010 North 518 596 39,000  Level FlightAware
12:53PM 43.7190 -124.1870 North 519 597 39,000  Level FlightAware
12:54PM 43.8070 -124.1740 North 518 596 39,000  Level FlightAware
12:55PM 43.9170 -124.1580 North 520 598 39,000  Level FlightAware
12:55PM 44.0240 -124.1420 North 522 601 39,000  Level FlightAware
12:56PM 44.1170 -124.1290 North 522 601 39,000  Level FlightAware
12:57PM 44.2080 -124.1150 North 522 601 39,000  Level FlightAware
12:57PM 44.2880 -124.0880 14° North 528 608 39,000  Level FlightAware
12:57PM 44.3190 -124.0560 36° Northeast 531 611 39,000  Level FlightAware
12:58PM 44.3440 -124.0050 56° Northeast 530 610 39,000  Level FlightAware
12:58PM 44.3530 -123.9540 76° East 524 603 39,000  Level FlightAware
12:58PM 44.3410 -123.8640 101° East 508 585 39,000  Level FlightAware
12:59PM 44.3240 -123.8300 125° Southeast 497 572 39,000  Level FlightAware
12:59PM 44.2970 -123.8020 143° Southeast 484 557 39,000  Level FlightAware
12:59PM 44.2730 -123.7890 159° South 475 547 39,000  Level FlightAware
01:00PM 44.1440 -123.7840 178° South 467 537 39,000  Level FlightAware
01:01PM 44.0590 -123.7950 185° South 466 536 39,000  Level FlightAware
01:01PM 43.9690 -123.8070 185° South 465 535 39,000  Level FlightAware
01:02PM 43.8970 -123.8180 186° South 467 537 39,000  Level FlightAware
01:03PM 43.8040 -123.8300 185° South 468 539 39,000  Level FlightAware
01:04PM 43.7090 -123.8430 186° South 470 541 39,000  Level FlightAware
01:04PM 43.6380 -123.8530 186° South 470 541 39,000  Level FlightAware
01:05PM 43.5470 -123.8650 185° South 470 541 39,000  Level FlightAware
01:06PM 43.4490 -123.8780 186° South 471 542 39,000  Level FlightAware
01:06PM 43.3610 -123.8900 186° South 472 543 39,000  Level FlightAware
01:07PM 43.2690 -123.9020 185° South 470 541 39,000  Level FlightAware
01:08PM 43.1890 -123.9130 186° South 470 541 39,000  Level FlightAware
01:08PM 43.0840 -123.9270 186° South 474 545 39,000  Level FlightAware
01:09PM 43.0250 -123.9350 186° South 474 545 39,000  Level FlightAware
01:10PM 42.9060 -123.9500 185° South 473 544 39,000  Level FlightAware
01:10PM 42.8130 -123.9630 186° South 473 544 39,000  Level FlightAware
01:11PM 42.7260 -123.9740 185° South 474 545 39,000  Level FlightAware
01:12PM 42.6460 -123.9850 186° South 474 545 39,000  Level FlightAware
01:13PM 42.5540 -123.9980 186° South 474 545 39,000  Level FlightAware
01:13PM 42.4870 -124.0080 186° South 474 545 39,000  Level FlightAware
01:14PM 42.4180 -124.0180 186° South 474 545 39,000  Level FlightAware
01:15PM 42.3280 -124.0310 186° South 474 545 39,000  Level FlightAware
01:16PM 42.2610 -124.0400 186° South 474 545 39,000  Level FlightAware
01:16PM 42.1660 -124.0540 186° South 474 545 39,000  Level FlightAware
01:17PM 42.1000 -124.0630 186° South 474 545 39,000  Level FlightAware
01:18PM 41.9880 -124.0790 186° South 474 545 39,000  Level FlightAware
01:19PM 41.8990 -124.0910 186° South 474 545 39,000  Level FlightAware
01:19PM 41.8310 -124.1010 186° South 474 545 39,000  Level FlightAware
01:20PM 41.7420 -124.1140 186° South 474 545 39,000  Level FlightAware
01:21PM 41.6730 -124.1230 186° South 474 545 39,000  Level FlightAware
01:22PM 41.3250 -124.1530 184° South 465 535 39,000  Level FlightAware
01:22PM 41.2320 -124.1640 185° South 471 542 39,000  Level FlightAware
01:23PM 41.1430 -124.1740 185° South 469 540 39,000  Level FlightAware
01:24PM 41.0570 -124.1840 185° South 468 539 39,000  Level FlightAware
01:25PM 40.9370 -124.1960 184° South 468 539 39,000  Level FlightAware
01:25PM 40.8710 -124.2020 184° South 468 539 39,000  Level FlightAware
01:26PM 40.7810 -124.2110 184° South 468 539 39,000  Level FlightAware
01:27PM 40.7150 -124.2170 184° South 468 539 39,000  Level FlightAware
01:28PM 40.6270 -124.2250 184° South 468 539 39,000  Level FlightAware
01:28PM 40.5590 -124.2310 184° South 468 539 39,000  Level FlightAware
01:29PM 40.4750 -124.2390 184° South 468 539 39,000  Level FlightAware
01:30PM 40.4050 -124.2450 184° South 468 539 39,000  Level FlightAware
01:31PM 40.2950 -124.2550 184° South 468 539 39,000  Level FlightAware
01:31PM 40.2290 -124.2610 184° South 468 539 39,000  Level FlightAware
01:32PM 40.1400 -124.2690 184° South 468 539 39,000  Level FlightAware
01:33PM 41.6289 -124.3747 10° North 509 586 39,000  Level Seattle Center
01:33PM 40.0720 -124.2760 185° South 468 539 39,000  Level FlightAware
01:34PM 39.9840 -124.2840 184° South 468 539 39,000  Level FlightAware
01:34PM 41.7703 -124.3606 North 510 587 39,000  Level Seattle Center
01:34PM 39.9180 -124.2900 184° South 468 539 39,000 -120 Level FlightAware
01:35PM 41.9128 -124.3456 North 511 588 38,900  Descending Seattle Center
01:36PM 42.0550 -124.3322 North 512 589 39,000  Climbing Seattle Center
01:37PM 42.1981 -124.3158 North 514 592 39,000  Level Seattle Center
01:39PM 40.8446 -124.0738 10° North  Level Estimated
01:43PM 43.0960 -124.2230 North 518 596 39,000  Level FlightAware
01:44PM 43.1980 -124.2120 North 520 598 39,000  Level FlightAware
01:44PM 43.2990 -124.2010 North 519 597 39,000  Level FlightAware
01:45PM 43.3950 -124.1910 North 518 596 39,000  Level FlightAware
01:46PM 43.4850 -124.1810 North 516 594 39,000  Level FlightAware
01:46PM 43.5870 -124.1700 North 515 593 39,000  Level FlightAware
01:47PM 43.6860 -124.1590 North 517 595 39,000  Level FlightAware
01:48PM 43.7700 -124.1500 North 518 596 39,000  Level FlightAware
01:48PM 43.8920 -124.1320 North 523 602 39,000  Level FlightAware
01:49PM 43.9820 -124.1010 14° North 524 603 39,000  Level FlightAware
01:50PM 44.0770 -124.0650 15° North 521 600 39,000  Level FlightAware
01:50PM 44.1770 -124.0270 15° North 521 600 39,000  Level FlightAware
01:51PM 44.2640 -123.9930 16° North 521 600 39,000  Level FlightAware
01:52PM 44.3580 -123.9570 15° North 521 600 39,000  Level FlightAware
01:53PM 44.4600 -123.9180 15° North 521 600 39,000  Level FlightAware
01:53PM 44.5520 -123.8820 16° North 521 600 39,000  Level FlightAware
01:54PM 44.6420 -123.8470 15° North 523 602 39,000  Level FlightAware
01:55PM 44.7470 -123.8070 15° North 524 603 39,000  Level FlightAware
01:55PM 44.8510 -123.7660 16° North 525 604 39,000  Level FlightAware
01:56PM 44.9450 -123.7290 16° North 525 604 39,000  Level FlightAware
01:57PM 45.0370 -123.6930 15° North 526 605 39,000  Level FlightAware
01:57PM 45.1130 -123.6630 16° North 526 605 39,000  Level FlightAware
01:58PM 45.2070 -123.6260 15° North 526 605 39,000 -120 Level FlightAware
01:59PM 45.3070 -123.6100 North 519 597 38,900 -1,080 Descending FlightAware
01:59PM 45.4070 -123.6080 North 514 592 37,500 -2,100 Descending FlightAware
02:00PM 45.4960 -123.6070 360° North 508 585 36,100 -2,100 Descending FlightAware
02:01PM 45.5900 -123.6070 360° North 498 573 34,800 -2,520 Descending FlightAware
02:01PM 45.6910 -123.6060 360° North 500 575 32,600 -2,940 Descending FlightAware
02:02PM 45.7850 -123.6050 360° North 498 573 30,700 -2,580 Descending FlightAware
02:03PM 45.8790 -123.6030 North 484 557 29,100 -2,400 Descending FlightAware
02:03PM 45.9770 -123.6020 360° North 473 544 27,300 -2,280 Descending FlightAware
02:04PM 46.0640 -123.5990 North 458 527 25,900 -2,220 Descending FlightAware
02:05PM 46.1510 -123.5960 North 451 519 24,300 -1,440 Descending FlightAware
02:05PM 46.2350 -123.5930 North 453 521 24,000 -240 Descending FlightAware
02:06PM 46.3250 -123.5880 North 456 525 24,000  Level FlightAware
02:07PM 46.4090 -123.5410 21° North 471 542 24,000 -180 Level FlightAware
02:08PM 46.4850 -123.4560 38° Northeast 470 541 23,800 -720 Descending FlightAware
02:08PM 46.5540 -123.3780 38° Northeast 470 541 23,000 -1,020 Descending FlightAware
02:09PM 46.6180 -123.3060 38° Northeast 464 534 22,500 -480 Descending FlightAware
02:10PM 46.6700 -123.2470 38° Northeast 460 529 22,400 -1,380 Descending FlightAware
02:10PM 46.7530 -123.1520 38° Northeast 428 493 20,600 -1,440 Descending FlightAware
02:11PM 46.8170 -123.0790 38° Northeast 419 482 20,200 -1,620 Descending FlightAware
02:12PM 46.8950 -122.9900 38° Northeast 400 460 18,100 -1,740 Descending FlightAware
02:13PM 46.9500 -122.9270 38° Northeast 397 457 17,600 -1,440 Descending FlightAware
02:13PM 47.0030 -122.8640 39° Northeast 397 457 16,300 -2,880 Descending FlightAware
02:14PM 47.0550 -122.7960 42° Northeast 367 422 14,100 -2,160 Descending FlightAware
02:15PM 47.1030 -122.7340 41° Northeast 352 405 13,200 -2,100 Descending FlightAware
02:15PM 47.1540 -122.6680 41° Northeast 336 387 11,200 -2,160 Descending FlightAware
02:16PM 47.2000 -122.6110 40° Northeast 306 352 10,500 -1,440 Descending FlightAware
02:16PM 47.2250 -122.5770 43° Northeast 294 338 9,700 -2,040 Descending FlightAware
02:17PM 47.2500 -122.5460 40° Northeast 286 329 8,800 -1,800 Descending FlightAware
02:17PM 47.2650 -122.5260 42° Northeast 287 330 8,500 -1,200 Descending FlightAware
02:17PM 47.2950 -122.4880 41° Northeast 280 322 7,900 -840 Descending FlightAware
02:18PM 47.3060 -122.4740 41° Northeast 279 321 7,900 -240 Level FlightAware
02:18PM 47.3210 -122.4630 26° Northeast 270 311 7,800 -180 Descending FlightAware
02:18PM 47.3590 -122.4590 North 267 307 7,800  Level FlightAware
02:19PM 47.3720 -122.4580 North 257 296 7,800 -180 Level FlightAware
02:19PM 47.4030 -122.4570 North 233 268 7,700 -120 Descending FlightAware
02:19PM 47.4260 -122.4570 360° North 233 268 7,700 -2,580 Level FlightAware
02:20PM 47.4910 -122.4590 359° North 247 284 4,300 -3,420 Descending FlightAware
02:21PM 47.5260 -122.4630 356° North 257 296 2,900 -1,620 Descending FlightAware
02:22PM 47.5720 -122.4780 348° North 250 288 2,400 -300 Descending FlightAware
02:23PM 47.6730 -122.5170 345° North 2,000 -180 Descending FlightAware
02:24PM 47.6900 -122.4760 58° Northeast 232 267 2,000  Level FlightAware
02:24PM 47.6870 -122.4440 98° East 183 211 2,000  Level FlightAware
02:25PM 47.6590 -122.4110 142° Southeast 175 201 2,000  Level FlightAware
02:26PM 47.6390 -122.3950 152° Southeast 154 177 2,000  Level FlightAware
02:26PM 47.6350 -122.3920 153° Southeast 153 176 2,000 -600 Level FlightAware
02:26PM 47.6170 -122.3760 149° Southeast 147 169 1,600 -840 Descending FlightAware
02:27PM 47.5980 -122.3600 150° Southeast 144 166 1,200 -780 Descending FlightAware
02:27PM 47.5860 -122.3500 151° Southeast 137 158 900 -780 Descending FlightAware
02:27PM 47.5770 -122.3420 149° Southeast 137 158 700 -300 Descending FlightAware
02:28PM 47.5620 -122.3300 152° Southeast 137 158 700 -480 Level FlightAware
02:29PM 47.5325 -122.3050 152° Southeast 138 159 100 -720 Descending Seattle Center